Monday, November 20, 2017, 7:35 AM GMT
Back to Local

CYRJ, Roberval, Que.

Location: , , Canada Lat: 48.517
Local Time: 7:35 AM GMT ( 7:35 GMT) Lon: -72.267
Time Zone: GMT Elev: 587 ft

Show me the last for .
Show Coded

Time T Td Feel RH Dir Speed Gust Alt SLP Vis Weather Sky Remarks
2017-11-20 07:00 16 9 3 72 280° 10 - 29.47 29.51 25 OVC061 Pressure rising rapidly
2017-11-20 06:00 16 9 -2 72 280° 13 21 29.44 29.48 25 BKN066 None
2017-11-20 05:00 18 9 2 67 280° 18 - 29.42 29.46 25 DRSN OVC062 None
2017-11-20 04:00 19 10 2 67 290° 16 25 29.37 29.41 25 FEW025 OVC073 None
2017-11-20 03:00 19 12 2 73 270° 16 23 29.36 29.39 25 DRSN FEW025 None
2017-11-20 02:21 21 14 4 73 280° 18 26 29.34 29.37 20 DRSN SCT055 None
2017-11-20 02:00 23 16 8 73 280° 15 22 29.33 29.36 25 -SN DRSN BKN054 BKN110 None
2017-11-20 01:00 23 16 8 73 290° 20 - 29.29 29.33 20 -SN BKN051 BKN095 None
2017-11-20 00:00 25 18 7 73 290° 17 33 29.26 29.29 8 -SN OVC041 None
2017-11-19 23:03 25 19 9 79 280° 17 24 29.24 29.27 8 -SN BKN033 OVC042 None
2017-11-19 23:00 25 19 9 79 290° 15 24 29.23 29.27 2 -SN BKN037 OVC042 None
2017-11-19 22:00 27 21 11 79 280° 17 28 29.21 29.24 2 -SN BKN030 OVC039 None
2017-11-19 21:21 27 23 11 86 290° 18 25 29.19 29.22 2 -SN OVC022 None
2017-11-19 21:00 27 23 11 86 290° 17 26 29.18 29.21 1 -SN VV012 None
2017-11-19 20:00 27 25 16 92 280° 13 - 29.15 29.18 1 -SN VV009 None
2017-11-19 19:00 27 25 11 92 300° 17 25 29.12 29.15 1 -SN VV012 None
2017-11-19 18:00 27 25 14 92 300° 16 - 29.10 29.14 1 -SN VV008 None
2017-11-19 17:00 27 25 16 92 300° 13 - 29.10 29.14 1 -SN VV009 None
2017-11-19 16:00 25 25 13 100 310° 14 - 29.12 29.15 1 -SN VV009 None
2017-11-19 15:09 25 23 15 92 310° 10 - 29.13 29.16 1 -SN VV009 None
2017-11-19 15:00 25 23 15 92 310° 9 - 29.13 29.16 2 -SN OVC008 None
2017-11-19 14:00 23 23 16 100 310° 6 - 29.14 29.18 2 -SN OVC006 None
2017-11-19 13:00 23 21 16 92 320° 6 - 29.17 29.21 2 -SN OVC004 None
2017-11-19 12:00 21 19 14 92 270° 6 - 29.20 29.24 2 -SN OVC004 None
2017-11-19 11:00 21 19 15 92 310° 5 - 29.22 29.26 0 -SN VV005 None
2017-11-19 10:38 19 19 11 100 300° 6 - 29.23 29.27 1 -SN VV005 None
2017-11-19 10:00 19 18 11 92 310° 6 - 29.25 29.29 0 -SN VV008 Pressure falling rapidly
2017-11-19 09:28 19 18 11 92 320° 6 - 29.27 29.31 0 -SN VV008 None
2017-11-19 09:07 19 18 10 92 300° 7 - 29.28 29.33 0 SN VV006 None
2017-11-19 09:00 19 18 10 92 300° 7 - 29.29 29.33 0 -SN VV007 None
2017-11-19 08:49 19 18 10 92 300° 7 - 29.29 29.33 0 -SN VV008 None
2017-11-19 08:13 18 16 7 92 300° 8 - 29.33 29.37 1 -SN VV013 None
2017-11-19 08:00 18 16 9 92 310° 6 - 29.33 29.37 0 -SN VV008 None
2017-11-19 07:41 18 16 8 92 310° 7 - 29.34 29.38 0 -SN VV006 None

Support USWX by starting your Amazon purchase here.